createdAt,value
2022-11-14T00:02:10.843Z,3.63
2022-11-14T00:04:56.734Z,3.47
2022-11-14T00:07:42.702Z,3.08
2022-11-14T00:10:28.663Z,3.38
2022-11-14T00:13:15.212Z,3.08
2022-11-14T00:16:01.225Z,3.20
2022-11-14T00:18:47.243Z,3.38
2022-11-14T00:21:33.163Z,3.13
2022-11-14T00:24:19.314Z,3.13
2022-11-14T00:27:05.088Z,3.47
2022-11-14T00:29:50.880Z,3.10
2022-11-14T00:32:36.755Z,3.10
2022-11-14T00:35:22.790Z,3.40
2022-11-14T00:38:08.554Z,3.33
2022-11-14T00:40:54.450Z,2.80
2022-11-14T00:43:40.321Z,3.60
2022-11-14T00:46:26.332Z,3.38
2022-11-14T00:49:12.284Z,3.00
2022-11-14T00:51:58.225Z,3.10
2022-11-14T00:54:44.304Z,3.38
2022-11-14T00:57:30.466Z,3.25
2022-11-14T01:00:16.383Z,2.90
2022-11-14T01:03:02.289Z,3.05
2022-11-14T01:05:50.264Z,2.92
2022-11-14T01:08:36.186Z,3.10
2022-11-14T01:11:22.638Z,3.80
2022-11-14T01:14:09.005Z,3.40
2022-11-14T01:16:54.933Z,3.15
2022-11-14T01:19:41.464Z,3.67
2022-11-14T01:22:29.227Z,3.95
2022-11-14T01:25:15.267Z,3.47
2022-11-14T01:28:01.376Z,3.20
2022-11-14T01:30:47.275Z,3.97
2022-11-14T01:33:33.225Z,3.40
2022-11-14T01:36:20.237Z,3.67
2022-11-14T01:39:06.278Z,3.40
2022-11-14T01:41:51.895Z,3.60
2022-11-14T01:44:52.674Z,3.15
2022-11-14T01:47:39.065Z,3.63
2022-11-14T01:50:24.787Z,3.53
2022-11-14T01:53:10.920Z,3.15
2022-11-14T01:56:00.766Z,3.17
2022-11-14T01:58:52.316Z,3.50
2022-11-14T02:01:44.807Z,3.10
2022-11-14T02:04:37.986Z,3.10
2022-11-14T02:07:27.708Z,3.63
2022-11-14T02:10:20.665Z,3.38
2022-11-14T02:13:07.135Z,3.42
2022-11-14T02:15:52.815Z,3.30
2022-11-14T02:18:38.865Z,3.40
2022-11-14T02:21:24.655Z,3.25
2022-11-14T02:24:12.124Z,2.88
2022-11-14T02:26:57.936Z,3.25
2022-11-14T02:29:43.625Z,3.20
2022-11-14T02:32:32.673Z,3.03
2022-11-14T02:35:31.364Z,3.20
2022-11-14T02:38:17.395Z,3.00
2022-11-14T02:41:03.577Z,2.70
2022-11-14T02:43:49.287Z,2.92
2022-11-14T02:46:35.905Z,2.88
2022-11-14T02:49:21.776Z,2.78
2022-11-14T02:52:07.672Z,3.00
2022-11-14T02:54:54.745Z,2.83
2022-11-14T02:57:40.454Z,3.17
2022-11-14T03:00:26.823Z,2.78
2022-11-14T03:03:14.118Z,2.75
2022-11-14T03:06:04.176Z,2.53
2022-11-14T03:08:49.865Z,2.53
2022-11-14T03:11:35.964Z,2.83
2022-11-14T03:14:22.015Z,2.72
2022-11-14T03:17:07.964Z,2.95
2022-11-14T03:19:53.786Z,2.75
2022-11-14T03:22:39.974Z,2.72
2022-11-14T03:25:25.877Z,2.75
2022-11-14T03:28:11.915Z,2.67
2022-11-14T03:30:57.983Z,3.15
2022-11-14T03:33:43.704Z,3.00
2022-11-14T03:36:29.384Z,2.58
2022-11-14T03:39:15.382Z,2.75
2022-11-14T03:42:01.018Z,2.78
2022-11-14T03:44:47.121Z,2.65
2022-11-14T03:47:33.074Z,2.60
2022-11-14T03:50:19.114Z,2.67
2022-11-14T03:53:05.470Z,2.63
2022-11-14T03:55:52.247Z,2.92
2022-11-14T03:58:38.317Z,2.60
2022-11-14T04:01:24.256Z,2.85
2022-11-14T04:04:12.587Z,2.55
2022-11-14T04:06:58.718Z,2.75
2022-11-14T04:09:45.086Z,2.38
2022-11-14T04:12:30.755Z,2.83
2022-11-14T04:15:17.657Z,2.78
2022-11-14T04:18:03.806Z,2.40
2022-11-14T04:20:49.457Z,2.60
2022-11-14T04:23:35.544Z,2.80
2022-11-14T04:26:22.127Z,2.70
2022-11-14T04:29:07.876Z,2.90
2022-11-14T04:31:53.614Z,2.63
2022-11-14T04:34:39.567Z,3.20
2022-11-14T04:37:25.698Z,2.90
2022-11-14T04:40:11.737Z,2.80
2022-11-14T04:42:57.686Z,2.97
2022-11-14T04:45:43.735Z,2.85
2022-11-14T04:48:29.775Z,2.90
2022-11-14T04:51:15.666Z,2.88
2022-11-14T04:54:01.715Z,2.70
2022-11-14T04:56:47.746Z,2.78
2022-11-14T04:59:33.775Z,2.42
2022-11-14T05:02:19.898Z,2.78
2022-11-14T05:05:06.254Z,2.67
2022-11-14T05:07:52.104Z,3.22
2022-11-14T05:10:38.038Z,2.75
2022-11-14T05:13:24.055Z,2.35
2022-11-14T05:16:10.144Z,3.10
2022-11-14T05:18:55.924Z,3.10
2022-11-14T05:21:41.865Z,2.45
2022-11-14T05:24:28.733Z,2.70
2022-11-14T05:27:14.737Z,2.53
2022-11-14T05:30:00.724Z,2.70
2022-11-14T05:32:46.836Z,2.63
2022-11-14T05:35:32.684Z,3.30
2022-11-14T05:38:18.625Z,3.05
2022-11-14T05:41:09.646Z,2.80
2022-11-14T05:43:55.524Z,3.35
2022-11-14T05:46:41.226Z,2.90
2022-11-14T05:49:27.017Z,3.03
2022-11-14T05:52:13.055Z,3.35
2022-11-14T05:54:59.032Z,3.03
2022-11-14T05:57:44.636Z,3.53
2022-11-14T06:00:33.395Z,2.85
2022-11-14T06:03:22.184Z,2.65
2022-11-14T06:06:10.126Z,3.17
2022-11-14T06:08:55.944Z,3.22
2022-11-14T06:11:41.848Z,3.25
2022-11-14T06:14:27.706Z,2.97
2022-11-14T06:17:13.744Z,3.10
2022-11-14T06:19:59.625Z,2.80
2022-11-14T06:22:45.434Z,3.10
2022-11-14T06:25:31.476Z,3.00
2022-11-14T06:28:17.414Z,2.97
2022-11-14T06:31:04.815Z,3.28
2022-11-14T06:33:51.045Z,2.92
2022-11-14T06:36:36.765Z,3.00
2022-11-14T06:39:22.714Z,3.17
2022-11-14T06:42:08.875Z,3.13
2022-11-14T06:44:54.759Z,3.42
2022-11-14T06:47:40.808Z,3.38
2022-11-14T06:50:26.588Z,3.45
2022-11-14T06:53:12.559Z,2.80
2022-11-14T06:56:01.357Z,2.97
2022-11-14T06:58:49.387Z,2.90
2022-11-14T07:01:35.458Z,3.17
2022-11-14T07:04:21.402Z,3.00
2022-11-14T07:07:07.431Z,2.88
2022-11-14T07:09:54.549Z,3.55
2022-11-14T07:12:40.231Z,2.80
2022-11-14T07:15:26.352Z,3.08
2022-11-14T07:18:12.000Z,3.30
2022-11-14T07:20:59.587Z,3.53
2022-11-14T07:23:45.610Z,3.20
2022-11-14T07:26:31.499Z,3.30
2022-11-14T07:29:17.478Z,3.33
2022-11-14T07:32:03.467Z,3.10
2022-11-14T07:34:49.608Z,3.17
2022-11-14T07:37:35.338Z,2.63
2022-11-14T07:40:21.248Z,3.17
2022-11-14T07:43:07.127Z,3.20
2022-11-14T07:45:53.068Z,3.30
2022-11-14T07:48:38.909Z,3.50
2022-11-14T07:51:24.780Z,3.88
2022-11-14T07:54:12.200Z,3.08
2022-11-14T07:56:57.947Z,3.67
2022-11-14T07:59:44.038Z,3.50
2022-11-14T08:02:29.857Z,3.13
2022-11-14T08:05:16.019Z,2.90
2022-11-14T08:08:02.489Z,3.08
2022-11-14T08:10:48.368Z,3.10
2022-11-14T08:13:34.479Z,3.35
2022-11-14T08:16:20.386Z,3.72
2022-11-14T08:19:06.658Z,3.13
2022-11-14T08:21:52.396Z,3.42
2022-11-14T08:24:38.187Z,3.22
2022-11-14T08:27:24.690Z,3.33
2022-11-14T08:30:11.096Z,3.10
2022-11-14T08:32:57.050Z,3.20
2022-11-14T08:35:43.037Z,3.25
2022-11-14T08:38:29.354Z,3.80
2022-11-14T08:41:15.398Z,3.75
2022-11-14T08:44:01.467Z,3.30
2022-11-14T08:46:47.528Z,3.60
2022-11-14T08:49:33.255Z,2.83
2022-11-14T08:52:19.117Z,3.50
2022-11-14T08:55:05.298Z,3.45
2022-11-14T08:57:53.859Z,2.95
2022-11-14T09:00:39.829Z,4.10
2022-11-14T09:03:25.492Z,3.35
2022-11-14T09:06:11.407Z,3.70
2022-11-14T09:08:57.899Z,3.50
2022-11-14T09:11:43.688Z,4.18
2022-11-14T09:14:29.757Z,4.07
2022-11-14T09:17:15.567Z,4.13
2022-11-14T09:20:01.487Z,3.75
2022-11-14T09:22:47.367Z,3.60
2022-11-14T09:25:33.298Z,4.40
2022-11-14T09:28:19.206Z,4.20
2022-11-14T09:31:11.897Z,4.28
2022-11-14T09:33:57.918Z,4.85
2022-11-14T09:36:44.398Z,3.90
2022-11-14T09:39:30.096Z,5.13
2022-11-14T09:42:22.087Z,3.80
2022-11-14T09:45:16.408Z,4.90
2022-11-14T09:48:09.690Z,4.38
2022-11-14T09:51:09.777Z,4.38
2022-11-14T09:54:07.937Z,5.05
2022-11-14T09:56:54.648Z,5.20
2022-11-14T09:59:40.347Z,7.13
2022-11-14T10:02:41.531Z,8.68
2022-11-14T10:05:57.839Z,7.28
2022-11-14T10:08:55.228Z,6.18
2022-11-14T10:12:03.760Z,6.38
2022-11-14T10:14:55.289Z,7.47
2022-11-14T10:17:46.988Z,5.82
2022-11-14T10:20:52.158Z,6.22
2022-11-14T10:23:37.706Z,5.90
2022-11-14T10:26:31.729Z,5.80
2022-11-14T10:32:22.197Z,5.78
2022-11-14T10:35:18.546Z,6.03
2022-11-14T10:38:07.539Z,5.30
2022-11-14T10:40:58.291Z,6.30
2022-11-14T10:43:49.646Z,6.05
2022-11-14T10:46:43.948Z,4.70
2022-11-14T10:49:36.248Z,5.63
2022-11-14T10:52:48.400Z,6.18
2022-11-14T10:56:05.484Z,4.80
2022-11-14T10:58:51.214Z,5.88
2022-11-14T11:01:57.932Z,5.00
2022-11-14T11:04:45.429Z,4.30
2022-11-14T11:08:02.924Z,4.78
2022-11-14T11:11:34.787Z,3.70
2022-11-14T11:14:20.971Z,4.00
2022-11-14T11:17:12.943Z,3.55
2022-11-14T11:20:26.768Z,3.50
2022-11-14T11:23:12.329Z,3.58
2022-11-14T11:26:08.040Z,3.00
2022-11-14T11:29:11.848Z,3.17
2022-11-14T11:31:59.299Z,3.42
2022-11-14T11:34:45.799Z,3.40
2022-11-14T11:37:37.289Z,3.25
2022-11-14T11:40:29.149Z,3.38
2022-11-14T11:43:42.356Z,3.17
2022-11-14T11:46:47.147Z,3.55
2022-11-14T11:49:53.455Z,3.47
2022-11-14T11:52:52.092Z,3.28
2022-11-14T11:55:56.477Z,3.08
2022-11-14T11:58:48.240Z,3.47
2022-11-14T12:04:33.211Z,5.45
2022-11-14T12:07:31.611Z,4.35
2022-11-14T12:10:27.431Z,4.88
2022-11-14T12:13:34.699Z,4.93
2022-11-14T12:16:58.047Z,4.97
2022-11-14T12:23:22.519Z,4.78
2022-11-14T12:26:17.116Z,5.32
2022-11-14T12:29:11.898Z,4.18
2022-11-14T12:32:07.037Z,4.25
2022-11-14T12:34:53.011Z,4.32
2022-11-14T12:37:45.041Z,4.10
2022-11-14T12:40:41.407Z,4.35
2022-11-14T12:43:37.177Z,3.65
2022-11-14T12:46:23.587Z,3.50
2022-11-14T12:49:37.574Z,3.40
2022-11-14T12:52:44.431Z,3.35
2022-11-14T12:55:30.258Z,3.60
2022-11-14T12:58:26.754Z,3.20
2022-11-14T13:01:38.224Z,3.22
2022-11-14T13:04:42.598Z,3.35
2022-11-14T13:07:49.116Z,2.58
2022-11-14T13:10:40.203Z,2.20
2022-11-14T13:13:44.689Z,2.50
2022-11-14T13:16:51.114Z,2.58
2022-11-14T13:20:04.588Z,2.40
2022-11-14T13:22:50.519Z,2.28
2022-11-14T13:25:36.579Z,2.28
2022-11-14T13:28:59.920Z,2.42
2022-11-14T13:32:10.030Z,1.90
2022-11-14T13:35:30.229Z,2.35
2022-11-14T13:38:50.828Z,2.20
2022-11-14T13:41:47.809Z,2.00
2022-11-14T13:45:27.108Z,2.25
2022-11-14T13:48:50.139Z,2.45
2022-11-14T13:51:46.148Z,2.55
2022-11-14T13:54:56.946Z,2.50
2022-11-14T13:58:34.378Z,2.22
2022-11-14T14:01:29.289Z,2.53
2022-11-14T14:04:42.668Z,2.17
2022-11-14T14:07:31.328Z,2.28
2022-11-14T14:10:49.255Z,1.98
2022-11-14T14:13:55.152Z,1.95
2022-11-14T14:16:51.249Z,2.50
2022-11-14T14:20:00.432Z,2.08
2022-11-14T14:23:12.549Z,2.00
2022-11-14T14:26:20.428Z,2.13
2022-11-14T14:29:24.369Z,2.72
2022-11-14T14:32:14.680Z,2.08
2022-11-14T14:35:13.739Z,2.10
2022-11-14T14:37:59.991Z,1.80
2022-11-14T14:40:47.678Z,1.77
2022-11-14T14:43:34.998Z,1.88
2022-11-14T14:46:32.888Z,1.80
2022-11-14T14:49:29.280Z,2.10
2022-11-14T14:58:37.554Z,1.90
2022-11-14T15:01:33.324Z,2.30
2022-11-14T15:04:20.329Z,3.47
2022-11-14T15:07:06.504Z,2.88
2022-11-14T15:10:01.978Z,2.20
2022-11-14T15:12:48.308Z,2.22
2022-11-14T15:15:34.778Z,2.47
2022-11-14T15:18:26.347Z,7.03
2022-11-14T15:21:24.854Z,11.27
2022-11-14T15:27:20.579Z,6.57
2022-11-14T15:30:19.938Z,4.60
2022-11-14T15:33:25.918Z,3.75
2022-11-14T15:36:14.899Z,3.30
2022-11-14T15:39:01.061Z,2.95
2022-11-14T15:41:47.059Z,2.58
2022-11-14T15:44:35.810Z,2.00
2022-11-14T15:48:00.427Z,2.78
2022-11-14T15:50:50.688Z,2.75
2022-11-14T15:53:37.828Z,6.00
2022-11-14T15:56:23.778Z,4.15
2022-11-14T15:59:12.020Z,3.47
2022-11-14T16:02:25.209Z,2.47
2022-11-14T16:05:14.440Z,1.90
2022-11-14T16:08:00.509Z,2.00
2022-11-14T16:10:46.452Z,1.80
2022-11-14T16:13:32.665Z,1.55
2022-11-14T16:16:18.942Z,1.52
2022-11-14T16:19:05.849Z,1.58
2022-11-14T16:21:51.758Z,1.40
2022-11-14T16:27:37.229Z,2.42
2022-11-14T16:30:25.291Z,2.20
2022-11-14T16:33:11.150Z,2.00
2022-11-14T16:35:56.760Z,1.77
2022-11-14T16:38:42.750Z,1.60
2022-11-14T16:41:29.264Z,1.80
2022-11-14T16:44:19.526Z,2.10
2022-11-14T16:47:05.467Z,1.70
2022-11-14T16:49:51.341Z,2.10
2022-11-14T16:52:39.444Z,1.83
2022-11-14T16:55:25.401Z,2.03
2022-11-14T16:58:11.419Z,1.55
2022-11-14T17:00:57.420Z,1.75
2022-11-14T17:03:43.590Z,1.63
2022-11-14T17:06:30.138Z,1.80
2022-11-14T17:09:15.968Z,2.05
2022-11-14T17:12:01.929Z,2.25
2022-11-14T17:14:47.533Z,1.73
2022-11-14T17:17:33.390Z,1.88
2022-11-14T17:20:19.242Z,2.72
2022-11-14T17:23:05.297Z,2.83
2022-11-14T17:25:51.269Z,4.20
2022-11-14T17:28:38.650Z,2.97
2022-11-14T17:31:24.752Z,3.08
2022-11-14T17:34:10.990Z,2.60
2022-11-14T17:36:57.069Z,2.78
2022-11-14T17:39:42.789Z,3.60
2022-11-14T17:42:29.060Z,2.70
2022-11-14T17:45:14.733Z,2.70
2022-11-14T17:48:00.766Z,2.47
2022-11-14T17:50:46.581Z,3.08
2022-11-14T17:53:34.543Z,3.10
2022-11-14T17:56:23.221Z,4.22
2022-11-14T18:02:24.359Z,5.32
2022-11-14T18:05:10.352Z,6.03
2022-11-14T18:07:56.216Z,5.25
2022-11-14T18:10:42.220Z,5.05
2022-11-14T18:13:28.468Z,6.82
2022-11-14T18:16:19.728Z,9.90
2022-11-14T18:19:05.822Z,8.63
2022-11-14T18:21:53.990Z,11.95
2022-11-14T18:24:43.439Z,8.52
2022-11-14T18:27:29.078Z,7.82
2022-11-14T18:30:39.951Z,5.45
2022-11-14T18:33:21.718Z,5.45
2022-11-14T18:36:16.919Z,5.15
2022-11-14T18:39:04.478Z,7.32
2022-11-14T18:41:50.514Z,7.32
2022-11-14T18:44:37.051Z,8.45
2022-11-14T18:47:23.364Z,7.80
2022-11-14T18:50:09.417Z,6.10
2022-11-14T18:52:55.332Z,4.35
2022-11-14T18:55:41.753Z,4.47
2022-11-14T18:58:27.524Z,3.95
2022-11-14T19:01:24.362Z,4.57
2022-11-14T19:04:24.016Z,5.15
2022-11-14T19:07:16.145Z,5.68
2022-11-14T19:10:08.672Z,5.97
2022-11-14T19:12:54.811Z,5.97
2022-11-14T19:15:46.780Z,5.32
2022-11-14T19:18:33.344Z,5.28
2022-11-14T19:21:19.615Z,4.50
2022-11-14T19:24:09.095Z,4.30
2022-11-14T19:27:35.165Z,3.60
2022-11-14T19:30:26.922Z,3.50
2022-11-14T19:33:43.225Z,3.72
2022-11-14T19:39:58.395Z,8.20
2022-11-14T19:42:44.398Z,7.20
2022-11-14T19:46:08.045Z,7.28
2022-11-14T19:48:58.824Z,7.75
2022-11-14T19:51:45.046Z,4.97
2022-11-14T19:57:53.110Z,7.88
2022-11-14T20:00:39.015Z,7.25
2022-11-14T20:03:52.398Z,7.80
2022-11-14T20:06:47.169Z,6.00
2022-11-14T20:09:32.884Z,4.28
2022-11-14T20:12:21.886Z,4.53
2022-11-14T20:15:08.409Z,4.10
2022-11-14T20:17:54.305Z,4.40
2022-11-14T20:20:40.243Z,4.80
2022-11-14T20:23:26.864Z,5.80
2022-11-14T20:26:14.945Z,5.22
2022-11-14T20:29:00.956Z,4.05
2022-11-14T20:31:46.816Z,4.40
2022-11-14T20:34:32.656Z,3.92
2022-11-14T20:37:18.604Z,3.88
2022-11-14T20:40:05.254Z,4.00
2022-11-14T20:42:51.064Z,3.83
2022-11-14T20:45:37.212Z,3.90
2022-11-14T20:48:23.924Z,4.20
2022-11-14T20:51:14.240Z,4.63
2022-11-14T20:53:59.914Z,4.78
2022-11-14T20:56:45.606Z,5.03
2022-11-14T20:59:31.375Z,5.30
2022-11-14T21:02:17.636Z,5.85
2022-11-14T21:05:03.678Z,5.80
2022-11-14T21:07:49.516Z,6.65
2022-11-14T21:10:45.895Z,5.78
2022-11-14T21:13:53.890Z,5.25
2022-11-14T21:16:40.284Z,5.03
2022-11-14T21:19:26.665Z,5.68
2022-11-14T21:22:13.484Z,4.88
2022-11-14T21:24:59.374Z,5.28
2022-11-14T21:27:45.275Z,4.65
2022-11-14T21:30:32.454Z,5.22
2022-11-14T21:33:18.256Z,5.10
2022-11-14T21:36:30.029Z,5.50
2022-11-14T21:39:16.851Z,5.78
2022-11-14T21:42:03.727Z,5.13
2022-11-14T21:44:49.742Z,5.63
2022-11-14T21:47:35.835Z,4.40
2022-11-14T21:50:21.714Z,4.60
2022-11-14T21:53:16.159Z,5.03
2022-11-14T21:56:16.721Z,4.68
2022-11-14T21:59:14.084Z,4.30
2022-11-14T22:02:18.295Z,4.50
2022-11-14T22:05:04.585Z,3.70
2022-11-14T22:07:50.135Z,4.82
2022-11-14T22:10:36.015Z,3.83
2022-11-14T22:13:21.888Z,3.30
2022-11-14T22:16:09.546Z,4.22
2022-11-14T22:19:00.491Z,3.50
2022-11-14T22:21:50.545Z,4.00
2022-11-14T22:24:36.469Z,3.00
2022-11-14T22:27:22.645Z,3.72
2022-11-14T22:30:09.105Z,3.20
2022-11-14T22:32:55.196Z,3.80
2022-11-14T22:35:41.255Z,3.03
2022-11-14T22:38:32.837Z,3.05
2022-11-14T22:41:20.987Z,3.75
2022-11-14T22:44:06.946Z,3.67
2022-11-14T22:46:52.937Z,4.13
2022-11-14T22:49:38.844Z,3.90
2022-11-14T22:52:24.918Z,3.60
2022-11-14T22:55:16.687Z,4.65
2022-11-14T22:58:03.881Z,3.70
2022-11-14T23:00:51.885Z,3.70
2022-11-14T23:03:38.365Z,4.00
2022-11-14T23:06:25.235Z,4.25
2022-11-14T23:09:10.966Z,3.50
2022-11-14T23:11:56.925Z,4.00
2022-11-14T23:14:42.778Z,3.67
2022-11-14T23:17:28.894Z,3.95
2022-11-14T23:20:16.629Z,4.32
2022-11-14T23:23:03.575Z,4.28
2022-11-14T23:25:49.302Z,4.05
2022-11-14T23:28:36.073Z,4.00
2022-11-14T23:31:22.031Z,3.35
2022-11-14T23:34:08.137Z,3.95
2022-11-14T23:36:54.053Z,4.10
2022-11-14T23:39:39.804Z,4.72
2022-11-14T23:42:27.072Z,4.15
2022-11-14T23:45:13.153Z,4.18
2022-11-14T23:47:59.066Z,3.97
2022-11-14T23:50:49.105Z,4.53
2022-11-14T23:53:34.831Z,3.80
2022-11-14T23:56:20.710Z,4.05
2022-11-14T23:59:06.990Z,3.72
